Time;durP1;ratioP1;P1;durP2;ratioP2;P2;SDS_P1;SDS_P2;PMS_P1;PMS_P2;Temp;Humidity;BMP_temperature;BMP_pressure;BME280_temperature;BME280_humidity;BME280_pressure;Samples;Min_cycle;Max_cycle;Signal;HPM_P1;HPM_P2
2022/04/12 00:00:44;;;;;;;2.65;2.30;;;10.00;36.40;;;;;;5049464;28;20238;-81
2022/04/12 00:03:11;;;;;;;3.95;2.58;;;10.00;36.40;;;;;;5053962;28;20203;-83
2022/04/12 00:05:40;;;;;;;2.50;2.30;;;10.00;36.70;;;;;;5055274;28;20222;-82
2022/04/12 00:08:08;;;;;;;3.35;2.58;;;10.00;36.40;;;;;;5055685;28;20222;-82
2022/04/12 00:10:36;;;;;;;3.50;2.80;;;10.00;36.80;;;;;;5051419;28;20203;-83
2022/04/12 00:13:04;;;;;;;4.15;2.90;;;9.90;37.70;;;;;;5046710;28;20268;-81
2022/04/12 00:15:31;;;;;;;4.32;2.90;;;9.90;37.90;;;;;;5045489;28;20218;-81
2022/04/12 00:20:45;;;;;;;2.63;2.30;;;9.90;37.90;;;;;;5045276;28;20265;-82
2022/04/12 00:23:13;;;;;;;5.47;3.05;;;9.90;38.00;;;;;;5045698;28;20230;-80
2022/04/12 00:25:42;;;;;;;3.15;2.85;;;9.80;38.20;;;;;;5047168;28;20211;-80
2022/04/12 00:28:10;;;;;;;3.75;2.50;;;9.70;38.90;;;;;;5047017;28;20235;-81
2022/04/12 00:30:37;;;;;;;2.70;2.50;;;9.60;38.90;;;;;;5045063;28;20226;-82
2022/04/12 00:33:05;;;;;;;5.75;3.03;;;9.60;39.60;;;;;;5044575;28;20230;-80
2022/04/12 00:35:33;;;;;;;3.03;2.63;;;9.60;39.10;;;;;;5046546;28;20203;-80
2022/04/12 00:38:00;;;;;;;2.70;2.50;;;9.60;39.80;;;;;;5045464;28;20314;-81
2022/04/12 00:40:27;;;;;;;3.45;2.90;;;9.60;39.00;;;;;;5047609;28;20235;-81
2022/04/12 00:42:55;;;;;;;4.57;2.58;;;9.60;38.80;;;;;;5051270;28;20310;-80
2022/04/12 00:45:23;;;;;;;3.40;2.58;;;9.60;38.60;;;;;;5053570;28;20211;-81
2022/04/12 00:47:50;;;;;;;3.42;2.70;;;9.60;39.80;;;;;;5053906;28;20234;-82
2022/04/12 00:50:19;;;;;;;4.63;2.70;;;9.50;39.80;;;;;;5057053;28;20206;-84
2022/04/12 00:52:49;;;;;;;3.38;2.70;;;9.50;40.10;;;;;;5057393;28;20183;-84
2022/04/12 00:55:16;;;;;;;3.50;3.10;;;9.50;39.70;;;;;;5057389;28;20259;-83
2022/04/12 00:57:43;;;;;;;3.05;2.10;;;9.40;40.00;;;;;;5057321;28;20299;-85
2022/04/12 01:00:12;;;;;;;4.88;2.80;;;9.30;39.90;;;;;;5056734;28;20207;-83
2022/04/12 01:02:40;;;;;;;4.97;2.80;;;9.30;39.90;;;;;;5050395;28;20603;-81
2022/04/12 01:05:08;;;;;;;4.35;2.75;;;9.20;39.80;;;;;;5049002;28;20267;-81
2022/04/12 01:07:37;;;;;;;3.65;2.92;;;9.20;39.80;;;;;;5049828;28;20207;-82
2022/04/12 01:10:05;;;;;;;4.25;2.85;;;9.20;39.80;;;;;;5033000;28;20203;-81
2022/04/12 01:12:38;;;;;;;2.55;2.30;;;9.20;39.80;;;;;;5028345;28;20214;-83
2022/04/12 01:15:16;;;;;;;3.90;2.88;;;9.30;39.90;;;;;;5027483;28;20234;-80
2022/04/12 01:17:43;;;;;;;3.15;2.53;;;9.20;39.80;;;;;;5027066;28;20214;-81
2022/04/12 01:20:11;;;;;;;4.55;2.78;;;9.20;39.80;;;;;;5036567;28;20218;-82
2022/04/12 01:22:47;;;;;;;3.60;2.80;;;9.20;39.80;;;;;;5035728;28;20270;-82
2022/04/12 01:25:15;;;;;;;3.80;3.05;;;9.20;40.50;;;;;;5036646;28;20222;-84
2022/04/12 01:27:42;;;;;;;3.03;2.58;;;9.10;40.50;;;;;;5032261;28;20207;-81
2022/04/12 01:30:11;;;;;;;3.17;2.90;;;9.00;40.70;;;;;;5035985;28;20191;-80
2022/04/12 01:32:38;;;;;;;4.25;2.88;;;9.00;41.10;;;;;;5034666;28;20234;-81
2022/04/12 01:35:06;;;;;;;2.65;2.42;;;8.90;41.50;;;;;;5023705;28;20214;-81
2022/04/12 01:37:33;;;;;;;4.78;2.60;;;9.00;41.60;;;;;;5018608;28;20208;-83
2022/04/12 01:40:00;;;;;;;2.90;2.47;;;9.00;41.80;;;;;;5019522;28;20680;-81
2022/04/12 01:42:29;;;;;;;4.18;2.63;;;9.00;41.70;;;;;;5028749;28;20249;-81
2022/04/12 01:44:56;;;;;;;4.30;2.15;;;8.90;41.50;;;;;;5027997;28;20235;-81
2022/04/12 01:47:22;;;;;;;2.50;2.30;;;8.90;41.70;;;;;;5028010;28;20215;-81
2022/04/12 01:49:49;;;;;;;2.83;2.60;;;8.90;41.70;;;;;;5027558;28;20251;-82
2022/04/12 01:52:16;;;;;;;5.15;3.15;;;8.90;41.80;;;;;;5027964;28;20222;-81
2022/04/12 01:54:43;;;;;;;3.50;3.20;;;8.90;41.90;;;;;;5029684;28;20212;-82
2022/04/12 01:57:10;;;;;;;3.95;2.58;;;8.80;42.10;;;;;;5036097;28;20210;-82
2022/04/12 01:59:39;;;;;;;3.78;3.30;;;8.80;42.30;;;;;;5036433;28;20222;-83
2022/04/12 02:02:06;;;;;;;2.80;2.60;;;8.80;42.60;;;;;;5033522;28;20211;-83
2022/04/12 02:04:33;;;;;;;3.40;2.92;;;8.80;42.80;;;;;;5036270;28;20203;-82
2022/04/12 02:07:00;;;;;;;2.95;2.75;;;8.80;42.40;;;;;;5036316;28;20235;-83
2022/04/12 02:09:27;;;;;;;3.20;2.90;;;8.80;42.70;;;;;;5035672;28;20299;-84
2022/04/12 02:11:55;;;;;;;4.97;3.20;;;8.80;42.50;;;;;;5036108;28;20204;-82
2022/04/12 02:14:22;;;;;;;3.78;3.38;;;8.70;43.00;;;;;;5039301;28;20206;-82
2022/04/12 02:16:52;;;;;;;3.95;3.00;;;8.70;43.20;;;;;;5055206;28;20199;-82
2022/04/12 02:19:19;;;;;;;4.50;3.05;;;8.60;43.40;;;;;;5059957;28;20215;-84
2022/04/12 02:21:46;;;;;;;5.40;3.45;;;8.70;43.30;;;;;;5060139;28;20195;-82
2022/04/12 02:24:13;;;;;;;4.15;3.35;;;8.70;43.30;;;;;;5059839;28;20207;-81
2022/04/12 02:26:41;;;;;;;4.10;3.70;;;8.70;43.30;;;;;;5058947;28;20221;-79
2022/04/12 02:29:07;;;;;;;5.43;3.83;;;8.70;43.30;;;;;;5044951;28;20315;-81
2022/04/12 02:31:34;;;;;;;4.53;3.30;;;8.70;43.80;;;;;;5039961;28;20214;-79
2022/04/12 02:34:03;;;;;;;4.72;3.78;;;8.70;43.90;;;;;;5057103;28;20206;-83
2022/04/12 02:36:30;;;;;;;4.57;3.70;;;8.70;44.30;;;;;;5059973;28;20214;-83
2022/04/12 02:38:57;;;;;;;4.68;3.63;;;8.70;43.60;;;;;;5050419;28;20250;-82
2022/04/12 02:41:24;;;;;;;7.75;3.95;;;8.60;44.20;;;;;;5055325;28;20215;-83
2022/04/12 02:43:51;;;;;;;6.30;3.60;;;8.60;44.20;;;;;;5055246;28;20256;-84
2022/04/12 02:46:18;;;;;;;6.95;3.50;;;8.50;44.50;;;;;;5052980;28;20226;-82
2022/04/12 02:48:44;;;;;;;9.18;4.30;;;8.50;44.50;;;;;;5047621;28;20265;-83
2022/04/12 02:51:13;;;;;;;4.63;3.63;;;8.50;44.60;;;;;;5042517;28;20238;-79
2022/04/12 02:53:40;;;;;;;4.10;3.60;;;8.60;44.20;;;;;;5038714;28;20207;-80
2022/04/12 02:56:07;;;;;;;5.28;3.95;;;8.60;44.40;;;;;;5039113;28;20294;-79
2022/04/12 02:58:34;;;;;;;3.85;3.40;;;8.60;44.20;;;;;;5041648;28;20223;-80
2022/04/12 03:01:01;;;;;;;5.50;4.22;;;8.50;44.60;;;;;;5043075;28;20230;-80
2022/04/12 03:03:28;;;;;;;4.47;3.95;;;8.50;44.80;;;;;;5042471;28;20275;-81
2022/04/12 03:05:56;;;;;;;4.93;3.90;;;8.60;44.50;;;;;;5048268;28;20441;-83
2022/04/12 03:08:24;;;;;;;4.60;4.00;;;8.40;44.90;;;;;;5057847;28;20235;-85
2022/04/12 03:10:51;;;;;;;7.00;4.28;;;8.40;45.10;;;;;;5058502;28;20226;-84
2022/04/12 03:13:18;;;;;;;6.32;4.15;;;8.30;45.90;;;;;;5058369;28;20199;-85
2022/04/12 03:15:45;;;;;;;5.38;4.28;;;8.30;46.30;;;;;;5059009;28;20202;-84
2022/04/12 03:18:12;;;;;;;4.65;4.10;;;8.20;46.60;;;;;;5058658;28;20302;-84
2022/04/12 03:20:39;;;;;;;4.55;3.75;;;8.10;46.60;;;;;;5057569;28;20218;-82
2022/04/12 03:23:07;;;;;;;5.55;4.38;;;8.10;47.00;;;;;;5040302;28;20214;-80
2022/04/12 03:25:36;;;;;;;8.00;4.63;;;8.20;46.60;;;;;;5038749;28;20222;-80
2022/04/12 03:28:03;;;;;;;4.90;3.85;;;8.30;46.40;;;;;;5037868;28;20234;-81
2022/04/12 03:30:30;;;;;;;12.35;4.07;;;8.20;46.30;;;;;;5041916;28;20709;-82
2022/04/12 03:32:57;;;;;;;5.07;3.53;;;8.20;46.50;;;;;;5045968;28;20230;-80
2022/04/12 03:35:24;;;;;;;4.30;3.67;;;8.10;46.60;;;;;;5048856;28;20628;-82
2022/04/12 03:37:51;;;;;;;8.73;4.43;;;8.10;47.10;;;;;;5047930;28;20218;-81
2022/04/12 03:40:19;;;;;;;7.22;4.28;;;8.00;47.70;;;;;;5045623;28;20196;-82
2022/04/12 03:42:47;;;;;;;8.27;4.75;;;8.00;47.30;;;;;;5047481;28;20210;-81
2022/04/12 03:45:14;;;;;;;4.60;3.80;;;8.00;47.40;;;;;;5046660;28;20706;-78
2022/04/12 03:47:41;;;;;;;5.13;4.25;;;8.10;46.90;;;;;;5032606;28;20208;-80
2022/04/12 03:50:09;;;;;;;6.68;3.70;;;8.00;47.20;;;;;;5030866;28;20258;-80
2022/04/12 03:52:36;;;;;;;4.78;3.95;;;7.90;47.40;;;;;;5049034;28;20223;-80
2022/04/12 03:55:04;;;;;;;8.02;4.35;;;7.90;48.00;;;;;;5043397;28;20267;-79
2022/04/12 03:57:32;;;;;;;9.52;4.68;;;7.80;48.30;;;;;;5046642;28;20218;-80
2022/04/12 04:00:01;;;;;;;5.93;4.97;;;7.80;48.30;;;;;;5045060;28;20231;-81
2022/04/12 04:02:28;;;;;;;6.25;4.95;;;7.80;48.30;;;;;;5047706;28;20222;-81
2022/04/12 04:04:55;;;;;;;5.03;4.32;;;7.70;48.20;;;;;;5047098;28;20207;-79
2022/04/12 04:07:23;;;;;;;5.28;4.78;;;7.70;48.20;;;;;;5045628;28;20230;-82
2022/04/12 04:09:49;;;;;;;5.85;4.35;;;7.60;48.10;;;;;;5043537;28;20258;-81
2022/04/12 04:12:16;;;;;;;6.13;4.82;;;7.60;49.00;;;;;;5045651;28;20270;-80
2022/04/12 04:14:44;;;;;;;6.03;4.45;;;7.60;49.50;;;;;;5043744;28;20246;-81
2022/04/12 04:17:12;;;;;;;5.32;4.10;;;7.50;49.80;;;;;;5041266;28;20614;-79
2022/04/12 04:19:39;;;;;;;6.07;4.20;;;7.50;50.30;;;;;;5044432;28;20223;-82
2022/04/12 04:22:06;;;;;;;5.53;4.80;;;7.40;50.70;;;;;;5044268;28;20230;-80
2022/04/12 04:24:33;;;;;;;6.18;4.60;;;7.30;51.30;;;;;;5051614;28;20214;-80
2022/04/12 04:27:00;;;;;;;4.95;4.15;;;7.10;52.10;;;;;;5054464;28;20202;-81
2022/04/12 04:29:32;;;;;;;8.52;4.15;;;7.10;54.10;;;;;;5055301;28;20223;-80
2022/04/12 04:32:00;;;;;;;8.95;4.43;;;7.10;53.70;;;;;;5055081;28;20251;-81
2022/04/12 04:34:28;;;;;;;6.63;4.50;;;7.10;53.80;;;;;;5047950;28;20566;-79
2022/04/12 04:36:55;;;;;;;6.00;4.70;;;7.20;54.00;;;;;;5034772;28;20199;-77
2022/04/12 04:39:22;;;;;;;7.57;4.68;;;7.20;54.10;;;;;;5033331;28;20219;-79
2022/04/12 04:41:49;;;;;;;7.25;4.53;;;7.10;53.80;;;;;;5036255;28;20301;-78
2022/04/12 04:44:16;;;;;;;4.90;4.10;;;7.10;54.70;;;;;;5036185;28;20215;-78
2022/04/12 04:46:43;;;;;;;4.95;4.15;;;7.00;55.40;;;;;;5038234;28;20214;-79
2022/04/12 04:49:10;;;;;;;6.25;4.50;;;7.00;55.50;;;;;;5074116;22;20317;-77
2022/04/12 04:51:41;;;;;;;6.90;4.78;;;7.10;56.60;;;;;;5068133;28;20234;-76
2022/04/12 04:54:08;;;;;;;4.75;4.03;;;7.10;57.10;;;;;;5065084;28;20203;-78
2022/04/12 04:56:35;;;;;;;6.22;4.13;;;7.20;57.20;;;;;;5070823;28;20268;-78
2022/04/12 04:59:02;;;;;;;6.32;4.00;;;7.20;57.20;;;;;;5070711;28;20305;-77
2022/04/12 05:01:29;;;;;;;4.07;3.67;;;7.30;58.00;;;;;;5071832;28;20578;-77
2022/04/12 05:03:56;;;;;;;5.93;3.70;;;7.40;57.40;;;;;;5066788;28;20209;-77
2022/04/12 05:06:23;;;;;;;4.45;3.90;;;7.50;57.50;;;;;;5059706;28;20245;-76
2022/04/12 05:08:51;;;;;;;4.05;3.60;;;7.50;57.50;;;;;;5066696;28;20240;-76
2022/04/12 05:11:18;;;;;;;3.67;3.38;;;7.60;57.20;;;;;;5069220;28;20228;-77
2022/04/12 05:13:56;;;;;;;4.47;3.47;;;7.60;57.60;;;;;;5058597;28;20209;-76
2022/04/12 05:16:23;;;;;;;5.45;3.60;;;7.80;57.00;;;;;;5061776;28;20206;-76
2022/04/12 05:18:51;;;;;;;5.38;4.65;;;7.80;56.60;;;;;;5061702;28;20313;-76
2022/04/12 05:21:18;;;;;;;5.45;4.53;;;8.00;56.60;;;;;;5067846;28;20297;-78
2022/04/12 05:23:45;;;;;;;5.47;4.25;;;8.10;56.00;;;;;;5065418;28;20221;-77
2022/04/12 05:26:14;;;;;;;6.13;4.65;;;8.10;55.60;;;;;;5065600;28;20202;-78
2022/04/12 05:28:40;;;;;;;6.22;4.60;;;8.30;54.70;;;;;;5065750;28;20260;-77
2022/04/12 05:31:07;;;;;;;8.85;5.47;;;8.50;53.80;;;;;;5070003;28;20226;-77
2022/04/12 05:33:34;;;;;;;8.88;5.38;;;8.70;53.70;;;;;;5064272;28;20713;-77
2022/04/12 05:36:01;;;;;;;10.50;5.60;;;8.90;52.10;;;;;;5065136;28;20205;-77
2022/04/12 05:38:28;;;;;;;5.22;4.70;;;9.10;51.30;;;;;;5064739;28;20298;-75
2022/04/12 05:40:55;;;;;;;6.97;5.35;;;9.20;50.10;;;;;;5070687;28;20190;-77
2022/04/12 05:43:24;;;;;;;6.20;4.55;;;9.20;49.50;;;;;;5072739;28;20212;-78
2022/04/12 05:45:51;;;;;;;5.80;5.30;;;9.10;49.50;;;;;;5074284;28;20202;-78
2022/04/12 05:48:17;;;;;;;7.53;4.90;;;9.10;49.50;;;;;;5074781;28;20265;-76
2022/04/12 05:50:44;;;;;;;9.95;5.28;;;9.20;49.50;;;;;;5073917;28;20218;-76
2022/04/12 05:53:11;;;;;;;9.20;5.15;;;9.30;49.60;;;;;;5065300;28;20571;-76
2022/04/12 05:55:38;;;;;;;6.43;4.97;;;9.50;49.80;;;;;;5058248;28;20749;-77
2022/04/12 05:58:05;;;;;;;8.93;5.18;;;9.80;50.10;;;;;;5059293;28;20253;-77
2022/04/12 06:00:34;;;;;;;5.70;5.15;;;10.00;46.80;;;;;;5067291;28;20207;-77
2022/04/12 06:03:04;;;;;;;9.73;5.30;;;10.10;46.40;;;;;;5075381;28;20258;-82
2022/04/12 06:05:32;;;;;;;9.25;5.38;;;10.20;46.30;;;;;;5079369;28;20254;-77
2022/04/12 06:08:00;;;;;;;7.65;4.57;;;10.40;46.80;;;;;;5079207;28;20229;-77
2022/04/12 06:10:27;;;;;;;6.03;4.78;;;10.90;45.20;;;;;;5066431;28;20686;-76
2022/04/12 06:12:54;;;;;;;7.55;5.53;;;11.20;43.90;;;;;;5057716;28;20199;-77
2022/04/12 06:15:21;;;;;;;6.47;4.45;;;11.40;42.50;;;;;;5057373;28;20738;-75
2022/04/12 06:17:49;;;;;;;5.45;4.45;;;11.40;42.10;;;;;;5056290;28;20293;-75
2022/04/12 06:20:18;;;;;;;7.20;5.20;;;11.10;41.50;;;;;;5056891;28;20254;-76
2022/04/12 06:22:45;;;;;;;6.22;5.50;;;11.00;42.40;;;;;;5056942;28;20216;-78
2022/04/12 06:25:14;;;;;;;8.68;5.22;;;11.10;42.10;;;;;;5057242;28;20213;-76
2022/04/12 06:27:42;;;;;;;6.07;5.47;;;11.10;41.40;;;;;;5056701;28;20609;-76
2022/04/12 06:30:11;;;;;;;10.18;5.43;;;10.60;42.30;;;;;;5055899;28;20357;-76
2022/04/12 06:32:39;;;;;;;6.72;5.40;;;10.20;43.20;;;;;;5055798;28;20245;-77
2022/04/12 06:35:10;;;;;;;7.55;6.28;;;9.80;45.30;;;;;;5055927;28;20237;-75
2022/04/12 06:37:37;;;;;;;5.32;4.53;;;10.00;45.50;;;;;;5056229;28;20210;-75
2022/04/12 06:40:06;;;;;;;6.35;4.60;;;10.30;45.00;;;;;;5055926;28;20253;-75
2022/04/12 06:42:34;;;;;;;5.53;4.90;;;10.30;42.60;;;;;;5055948;28;20210;-77
2022/04/12 06:45:01;;;;;;;8.70;4.95;;;10.60;42.70;;;;;;5056221;28;20320;-76
2022/04/12 06:47:28;;;;;;;6.25;5.35;;;10.70;42.20;;;;;;5055979;28;20218;-77
2022/04/12 06:49:56;;;;;;;5.03;4.63;;;10.80;41.80;;;;;;5016378;28;1140998;-76
2022/04/12 06:52:24;;;;;;;8.52;5.55;;;11.00;41.10;;;;;;5057013;28;20301;-75
2022/04/12 06:54:52;;;;;;;5.97;5.05;;;11.10;41.20;;;;;;5058701;28;20249;-77
2022/04/12 06:57:19;;;;;;;6.88;5.20;;;11.10;40.50;;;;;;5059852;28;20206;-75
2022/04/12 06:59:46;;;;;;;6.97;4.78;;;11.20;40.60;;;;;;5062804;28;20250;-75
2022/04/12 07:02:13;;;;;;;4.72;4.32;;;11.40;39.20;;;;;;5062631;28;20674;-74
2022/04/12 07:04:40;;;;;;;8.23;4.75;;;11.50;38.20;;;;;;5061002;28;20211;-77
2022/04/12 07:07:07;;;;;;;6.00;4.63;;;11.70;38.30;;;;;;5060596;28;20573;-75
2022/04/12 07:09:35;;;;;;;6.50;4.88;;;11.90;37.60;;;;;;5059322;28;20238;-75
2022/04/12 07:12:03;;;;;;;5.28;4.43;;;12.10;37.10;;;;;;5056888;28;20213;-74
2022/04/12 07:14:31;;;;;;;5.10;4.55;;;12.20;36.60;;;;;;5056047;28;20214;-75
2022/04/12 07:16:59;;;;;;;7.72;4.70;;;12.30;36.70;;;;;;5056650;28;20214;-75
2022/04/12 07:19:27;;;;;;;6.45;5.07;;;12.40;36.70;;;;;;5056199;28;20245;-75
2022/04/12 07:21:54;;;;;;;6.22;5.00;;;12.60;35.80;;;;;;5061050;28;20238;-76
2022/04/12 07:24:35;;;;;;;7.82;5.00;;;12.50;36.20;;;;;;5063763;28;20230;-77
2022/04/12 07:27:02;;;;;;;6.07;4.68;;;12.60;36.00;;;;;;5026242;28;20634;-76
2022/04/12 07:29:30;;;;;;;5.45;4.80;;;12.90;35.60;;;;;;5059537;28;20226;-76
2022/04/12 07:31:58;;;;;;;8.10;5.10;;;12.70;35.60;;;;;;5071435;28;20230;-76
2022/04/12 07:34:25;;;;;;;5.57;4.55;;;12.90;35.60;;;;;;5068839;28;20225;-75
2022/04/12 07:36:54;;;;;;;5.60;4.82;;;13.00;35.40;;;;;;5060140;28;20207;-75
2022/04/12 07:39:21;;;;;;;7.88;5.57;;;13.40;35.00;;;;;;5062664;28;20597;-74
2022/04/12 07:41:50;;;;;;;6.32;4.57;;;13.30;33.50;;;;;;5061912;28;20284;-74
2022/04/12 07:44:18;;;;;;;7.50;4.50;;;13.00;34.50;;;;;;5055766;28;20218;-75
2022/04/12 07:46:45;;;;;;;7.45;4.50;;;13.40;32.60;;;;;;5055150;28;20442;-77
2022/04/12 07:49:12;;;;;;;4.45;4.05;;;13.10;33.70;;;;;;5054691;28;20619;-75
2022/04/12 07:51:40;;;;;;;7.85;4.90;;;13.10;34.30;;;;;;5054436;28;20321;-76
2022/04/12 07:54:07;;;;;;;5.00;4.50;;;13.50;33.80;;;;;;5054756;28;20293;-74
2022/04/12 07:56:34;;;;;;;5.20;4.70;;;13.90;33.10;;;;;;5054691;28;20447;-76
2022/04/12 07:59:03;;;;;;;5.40;4.20;;;14.00;33.20;;;;;;5055659;28;20487;-75
2022/04/12 08:01:30;;;;;;;4.67;4.20;;;14.00;32.60;;;;;;5055901;28;20902;-77
2022/04/12 08:03:57;;;;;;;4.83;4.20;;;14.00;32.40;;;;;;5062115;28;20430;-75
2022/04/12 08:06:24;;;;;;;6.40;4.70;;;14.10;31.90;;;;;;5064698;28;20435;-75
2022/04/12 08:08:50;;;;;;;5.20;3.67;;;14.00;32.00;;;;;;5063346;28;20520;-76
2022/04/12 08:11:17;;;;;;;4.80;3.97;;;14.00;33.20;;;;;;5058176;28;20477;-76
2022/04/12 08:13:45;;;;;;;5.20;3.83;;;14.00;32.30;;;;;;5056600;28;20499;-75
2022/04/12 08:16:15;;;;;;;5.93;4.00;;;14.00;32.60;;;;;;5056856;28;20544;-76
2022/04/12 08:18:42;;;;;;;4.63;4.00;;;14.10;33.10;;;;;;5057077;28;20499;-76
2022/04/12 08:21:09;;;;;;;5.07;3.83;;;14.20;31.20;;;;;;5061692;28;20278;-75
2022/04/12 08:23:36;;;;;;;4.00;3.60;;;14.20;31.20;;;;;;5061371;28;20528;-76
2022/04/12 08:26:03;;;;;;;6.67;3.50;;;14.10;31.90;;;;;;5057149;28;20893;-76
2022/04/12 08:28:30;;;;;;;6.23;3.60;;;14.70;31.00;;;;;;5061618;28;20980;-75
2022/04/12 08:30:57;;;;;;;4.20;3.70;;;15.30;30.10;;;;;;5063282;28;20452;-76
2022/04/12 08:33:27;;;;;;;4.10;3.50;;;15.60;29.70;;;;;;5061236;28;20449;-77
2022/04/12 08:35:53;;;;;;;4.80;3.77;;;15.70;30.10;;;;;;5054440;28;20903;-75
2022/04/12 08:38:20;;;;;;;7.07;3.93;;;15.90;29.30;;;;;;5055041;28;20567;-75
2022/04/12 08:40:48;;;;;;;4.40;3.60;;;16.20;29.00;;;;;;5055639;28;20480;-74
2022/04/12 08:43:17;;;;;;;7.10;3.63;;;16.30;29.10;;;;;;5054723;28;20438;-76
2022/04/12 08:45:45;;;;;;;6.13;3.83;;;16.00;29.80;;;;;;5055330;28;20489;-76
2022/04/12 08:48:13;;;;;;;4.77;4.00;;;16.30;29.70;;;;;;5054757;28;20456;-76
2022/04/12 08:50:41;;;;;;;6.67;3.70;;;16.70;28.90;;;;;;5054530;28;20451;-76
2022/04/12 08:53:10;;;;;;;4.70;3.20;;;17.10;28.70;;;;;;5055016;28;20476;-76
2022/04/12 08:55:39;;;;;;;5.60;3.47;;;16.90;28.50;;;;;;5056353;28;20432;-76
2022/04/12 08:58:05;;;;;;;3.97;3.33;;;17.30;28.00;;;;;;5055121;28;20469;-76
2022/04/12 09:00:32;;;;;;;6.03;3.80;;;17.40;27.00;;;;;;5054581;28;20467;-75
2022/04/12 09:03:00;;;;;;;4.27;3.87;;;17.50;27.10;;;;;;5053993;28;20467;-73
2022/04/12 09:05:27;;;;;;;4.47;3.67;;;17.00;27.60;;;;;;5053932;28;20596;-75
2022/04/12 09:07:56;;;;;;;3.43;2.73;;;16.90;28.20;;;;;;5054851;28;20456;-75
2022/04/12 09:10:34;;;;;;;5.40;3.80;;;17.00;28.50;;;;;;5055051;28;20436;-77
2022/04/12 09:13:10;;;;;;;3.93;2.97;;;17.70;27.30;;;;;;5053336;28;20815;-75
2022/04/12 09:15:43;;;;;;;5.37;3.07;;;18.10;26.80;;;;;;5056036;28;20407;-76
2022/04/12 09:18:10;;;;;;;3.83;3.10;;;18.20;26.30;;;;;;5057204;28;20446;-76
2022/04/12 09:20:37;;;;;;;5.63;3.00;;;18.40;26.20;;;;;;5054655;28;20445;-74
2022/04/12 09:23:15;;;;;;;3.03;2.53;;;18.40;26.10;;;;;;5054503;28;20508;-75
2022/04/12 09:25:54;;;;;;;2.67;2.17;;;18.00;26.30;;;;;;5054272;28;20540;-76
2022/04/12 09:28:21;;;;;;;3.00;2.80;;;17.80;27.30;;;;;;5055376;28;20478;-74
2022/04/12 09:30:53;;;;;;;2.50;2.30;;;18.30;25.90;;;;;;5055919;28;20495;-75
2022/04/12 09:33:36;;;;;;;4.23;2.40;;;18.40;26.90;;;;;;5061116;28;20453;-75
2022/04/12 09:36:03;;;;;;;3.67;2.83;;;18.70;26.00;;;;;;5059324;28;20449;-75
2022/04/12 09:38:36;;;;;;;3.17;2.60;;;18.80;25.40;;;;;;5054881;28;20483;-75
2022/04/12 09:41:18;;;;;;;5.17;2.70;;;19.00;25.70;;;;;;5057782;28;20522;-76
2022/04/12 09:44:05;;;;;;;3.10;2.70;;;18.60;26.40;;;;;;5063694;28;20471;-74
2022/04/12 09:46:33;;;;;;;2.60;2.17;;;18.50;26.60;;;;;;5054537;28;20456;-75
2022/04/12 09:49:00;;;;;;;5.63;2.40;;;18.90;25.90;;;;;;5053580;28;20476;-75
2022/04/12 09:51:27;;;;;;;3.70;2.60;;;18.90;25.80;;;;;;5053144;28;20527;-75
2022/04/12 09:53:55;;;;;;;3.80;2.07;;;19.20;25.30;;;;;;5054595;28;20432;-75
2022/04/12 09:56:24;;;;;;;3.80;2.30;;;19.40;24.60;;;;;;5053298;28;20436;-75
2022/04/12 09:58:52;;;;;;;3.07;2.43;;;19.70;24.70;;;;;;5052919;28;20501;-75
2022/04/12 10:01:20;;;;;;;2.60;2.40;;;19.70;24.50;;;;;;5056012;28;20446;-77
2022/04/12 10:03:50;;;;;;;2.53;2.33;;;19.90;24.10;;;;;;5055272;28;20464;-76
2022/04/12 10:06:20;;;;;;;2.97;2.20;;;20.10;23.70;;;;;;5056367;28;20441;-77
2022/04/12 10:08:51;;;;;;;4.40;2.07;;;20.30;23.70;;;;;;5054219;28;20478;-74
2022/04/12 10:11:20;;;;;;;2.90;2.10;;;20.10;23.40;;;;;;5054455;28;20562;-74
2022/04/12 10:13:48;;;;;;;5.93;2.17;;;20.10;23.30;;;;;;5055772;28;20464;-76
2022/04/12 10:16:17;;;;;;;2.37;1.90;;;20.10;23.30;;;;;;5060874;28;20499;-76
2022/04/12 10:18:44;;;;;;;3.10;2.07;;;20.10;23.10;;;;;;5054887;28;21040;-75
2022/04/12 10:21:12;;;;;;;7.20;2.20;;;20.00;23.50;;;;;;5054215;28;20512;-74
2022/04/12 10:23:42;;;;;;;4.70;2.00;;;20.10;23.40;;;;;;5057927;28;20610;-74
2022/04/12 10:26:10;;;;;;;3.73;1.77;;;20.10;23.00;;;;;;5061883;28;20441;-74
2022/04/12 10:28:39;;;;;;;2.20;2.00;;;20.20;22.90;;;;;;5057579;28;20504;-75
2022/04/12 10:31:24;;;;;;;2.20;1.47;;;20.00;23.40;;;;;;5061337;28;20572;-74
2022/04/12 10:33:53;;;;;;;1.90;1.57;;;20.30;22.70;;;;;;5059728;28;20460;-74
2022/04/12 10:36:20;;;;;;;4.10;1.70;;;20.60;22.90;;;;;;5069423;28;20428;-75
2022/04/12 10:38:47;;;;;;;7.60;2.00;;;20.60;22.80;;;;;;5070530;28;20511;-76
2022/04/12 10:41:16;;;;;;;3.00;2.07;;;20.50;22.60;;;;;;5069776;28;20444;-75
2022/04/12 10:43:45;;;;;;;3.00;1.60;;;20.60;22.50;;;;;;5064820;28;20412;-75
2022/04/12 10:46:13;;;;;;;2.40;1.80;;;20.90;21.90;;;;;;5075448;28;20446;-78
2022/04/12 10:48:40;;;;;;;5.77;1.80;;;21.00;21.40;;;;;;5074801;28;20472;-76
2022/04/12 10:51:08;;;;;;;5.47;1.80;;;20.90;22.20;;;;;;5079093;28;20484;-74
2022/04/12 10:53:55;;;;;;;6.70;1.80;;;20.60;22.30;;;;;;5075983;28;20481;-76
2022/04/12 10:56:26;;;;;;;5.40;1.97;;;20.90;21.30;;;;;;5057565;28;20464;-76
2022/04/12 10:58:54;;;;;;;6.17;2.27;;;21.10;21.50;;;;;;5059028;28;20506;-76
2022/04/12 11:01:32;;;;;;;4.20;2.03;;;21.20;21.50;;;;;;5069942;28;20442;-76
2022/04/12 11:04:01;;;;;;;4.60;2.20;;;21.00;21.40;;;;;;5068237;28;20454;-74
2022/04/12 11:06:29;;;;;;;3.57;1.80;;;21.20;21.80;;;;;;5071098;28;20508;-76
2022/04/12 11:09:07;;;;;;;1.63;1.50;;;21.50;21.70;;;;;;5071602;28;20444;-76
2022/04/12 11:11:40;;;;;;;3.27;1.90;;;21.70;21.40;;;;;;5068727;28;20445;-76
2022/04/12 11:14:26;;;;;;;3.83;1.57;;;21.90;20.90;;;;;;5065754;28;20443;-76
2022/04/12 11:16:58;;;;;;;3.50;2.03;;;22.00;21.30;;;;;;5064638;28;20435;-76
2022/04/12 11:19:25;;;;;;;4.70;1.60;;;22.20;21.10;;;;;;5063011;28;20482;-76
2022/04/12 11:22:01;;;;;;;5.10;1.97;;;21.70;21.90;;;;;;5057914;28;20559;-76
2022/04/12 11:24:29;;;;;;;4.40;1.67;;;21.70;21.90;;;;;;5059962;28;20431;-76
2022/04/12 11:27:06;;;;;;;3.10;1.73;;;22.00;22.10;;;;;;5064738;28;20458;-76
2022/04/12 11:29:35;;;;;;;2.67;1.77;;;22.30;21.30;;;;;;5058162;28;20504;-77
2022/04/12 11:32:03;;;;;;;2.13;1.70;;;22.40;21.60;;;;;;5058732;28;20536;-76
2022/04/12 11:34:31;;;;;;;3.20;2.33;;;22.50;21.00;;;;;;5057597;28;20567;-77
2022/04/12 11:36:59;;;;;;;3.50;1.60;;;22.40;21.20;;;;;;5058056;28;20432;-77
2022/04/12 11:39:28;;;;;;;5.53;1.93;;;22.70;20.90;;;;;;5057423;28;20487;-77
2022/04/12 11:41:59;;;;;;;2.83;1.67;;;23.00;20.80;;;;;;5063542;28;20475;-77
2022/04/12 11:44:27;;;;;;;5.30;1.70;;;23.10;20.40;;;;;;5064342;28;20868;-77
2022/04/12 11:47:01;;;;;;;5.57;2.33;;;23.20;20.70;;;;;;5063389;28;20416;-75
2022/04/12 11:49:29;;;;;;;11.33;2.07;;;23.20;20.70;;;;;;5061703;28;20490;-76
2022/04/12 11:51:59;;;;;;;5.73;2.37;;;23.40;20.30;;;;;;5064660;28;20498;-77
2022/04/12 11:54:29;;;;;;;102.00;9.93;;;23.30;20.20;;;;;;5063543;28;20453;-76
2022/04/12 11:57:03;;;;;;;3.03;1.77;;;23.20;19.60;;;;;;5062656;28;20970;-77
2022/04/12 11:59:32;;;;;;;3.20;1.70;;;23.50;19.40;;;;;;5062237;28;20491;-76
2022/04/12 12:02:02;;;;;;;3.87;1.60;;;23.70;19.90;;;;;;5064335;28;20457;-75
2022/04/12 12:04:31;;;;;;;2.37;1.37;;;23.50;19.00;;;;;;5063661;28;20518;-77
2022/04/12 12:07:01;;;;;;;3.50;1.60;;;23.60;18.50;;;;;;5064171;28;20462;-77
2022/04/12 12:09:28;;;;;;;6.60;1.80;;;24.00;17.90;;;;;;5065941;28;20443;-75
2022/04/12 12:11:58;;;;;;;6.87;1.83;;;24.40;17.80;;;;;;5067867;28;20520;-77
2022/04/12 12:14:27;;;;;;;3.40;1.53;;;24.50;17.60;;;;;;5062050;28;20451;-76
2022/04/12 12:17:08;;;;;;;2.77;1.63;;;24.70;18.10;;;;;;5058577;28;20443;-77
2022/04/12 12:19:38;;;;;;;2.83;1.70;;;24.90;18.20;;;;;;5057262;28;20477;-77
2022/04/12 12:22:06;;;;;;;2.10;1.30;;;25.00;17.80;;;;;;5057225;28;20508;-77
2022/04/12 12:24:37;;;;;;;3.07;1.80;;;25.10;17.10;;;;;;5062086;28;20445;-77
2022/04/12 12:27:05;;;;;;;3.97;1.40;;;25.10;17.30;;;;;;5067551;28;20464;-76
2022/04/12 12:29:36;;;;;;;2.47;1.60;;;25.10;17.40;;;;;;5061024;28;20553;-77
2022/04/12 12:32:06;;;;;;;4.40;1.67;;;25.30;17.60;;;;;;5062712;28;20501;-77
2022/04/12 12:34:35;;;;;;;3.33;1.60;;;25.50;17.70;;;;;;5058355;28;20482;-77
2022/04/12 12:37:07;;;;;;;2.50;1.20;;;25.60;16.10;;;;;;5058201;28;20515;-76
2022/04/12 12:39:37;;;;;;;1.87;1.47;;;24.90;13.80;;;;;;5072681;28;20453;-76
2022/04/12 12:42:04;;;;;;;7.10;1.40;;;24.80;14.50;;;;;;5077072;28;20420;-76
2022/04/12 12:44:34;;;;;;;2.90;1.80;;;24.50;14.50;;;;;;5072767;28;20457;-76
2022/04/12 12:47:03;;;;;;;1.93;1.47;;;24.60;13.70;;;;;;5065613;28;20561;-77
2022/04/12 12:49:37;;;;;;;2.93;1.10;;;24.90;13.60;;;;;;5064847;28;20550;-77
2022/04/12 12:52:06;;;;;;;0.97;0.97;;;25.10;13.30;;;;;;5063641;28;20861;-75
2022/04/12 12:54:33;;;;;;;7.27;1.50;;;25.50;13.10;;;;;;5056449;28;20789;-76
2022/04/12 12:57:01;;;;;;;13.73;1.80;;;25.80;13.00;;;;;;5056322;28;20686;-77
2022/04/12 12:59:31;;;;;;;2.57;1.60;;;25.50;12.70;;;;;;5056818;28;20504;-77